createdAt,value
2024-01-28T00:02:18.732Z,5.60
2024-01-28T00:07:21.549Z,4.80
2024-01-28T00:12:24.495Z,8.90
2024-01-28T00:17:27.307Z,7.60
2024-01-28T00:22:30.902Z,6.20
2024-01-28T00:27:33.703Z,6.10
2024-01-28T00:32:36.509Z,7.80
2024-01-28T00:37:39.846Z,7.70
2024-01-28T00:42:42.803Z,8.70
2024-01-28T00:47:46.128Z,9.30
2024-01-28T00:52:49.633Z,8.00
2024-01-28T00:57:52.446Z,7.90
2024-01-28T01:02:55.587Z,8.10
2024-01-28T01:07:58.796Z,6.70
2024-01-28T01:13:01.681Z,5.80
2024-01-28T01:18:04.936Z,7.70
2024-01-28T01:23:08.106Z,7.70
2024-01-28T01:28:11.579Z,6.60
2024-01-28T01:33:14.779Z,5.60
2024-01-28T01:38:17.750Z,7.60
2024-01-28T01:43:23.135Z,7.20
2024-01-28T01:48:28.421Z,6.90
2024-01-28T01:53:31.420Z,5.30
2024-01-28T01:58:34.280Z,5.90
2024-01-28T02:03:38.178Z,6.30
2024-01-28T02:08:41.809Z,7.60
2024-01-28T02:13:44.733Z,6.90
2024-01-28T02:18:47.765Z,6.70
2024-01-28T02:23:50.820Z,6.10
2024-01-28T02:28:53.726Z,5.60
2024-01-28T02:33:56.778Z,5.10
2024-01-28T02:39:00.299Z,6.00
2024-01-28T02:44:03.562Z,4.90
2024-01-28T02:49:06.445Z,5.60
2024-01-28T02:54:09.380Z,4.80
2024-01-28T02:59:12.418Z,4.50
2024-01-28T03:04:16.276Z,5.20
2024-01-28T03:09:20.096Z,3.90
2024-01-28T03:14:22.918Z,4.20
2024-01-28T03:19:26.248Z,4.60
2024-01-28T03:24:29.075Z,4.30
2024-01-28T03:29:31.849Z,3.60
2024-01-28T03:34:35.027Z,3.20
2024-01-28T03:39:37.934Z,4.00
2024-01-28T03:44:40.890Z,3.20
2024-01-28T03:49:43.888Z,3.00
2024-01-28T03:54:47.003Z,3.00
2024-01-28T03:59:49.882Z,3.30
2024-01-28T04:04:52.765Z,3.00
2024-01-28T04:09:55.671Z,3.20
2024-01-28T04:14:58.412Z,3.20
2024-01-28T04:20:01.348Z,2.90
2024-01-28T04:25:04.902Z,3.20
2024-01-28T04:30:10.162Z,3.20
2024-01-28T04:35:13.864Z,4.20
2024-01-28T04:40:16.799Z,2.70
2024-01-28T04:45:19.641Z,3.00
2024-01-28T04:50:22.519Z,4.30
2024-01-28T04:55:25.420Z,4.00
2024-01-28T05:00:28.270Z,3.90
2024-01-28T05:05:31.120Z,4.10
2024-01-28T05:10:33.952Z,4.80
2024-01-28T05:15:36.996Z,4.80
2024-01-28T05:20:39.770Z,3.60
2024-01-28T05:25:43.002Z,3.40
2024-01-28T05:30:46.005Z,3.80
2024-01-28T05:35:48.883Z,4.50
2024-01-28T05:40:51.684Z,3.70
2024-01-28T05:45:54.700Z,3.80
2024-01-28T05:50:57.556Z,4.40
2024-01-28T05:56:00.474Z,4.30
2024-01-28T06:01:08.081Z,5.50
2024-01-28T06:06:11.378Z,5.10
2024-01-28T06:11:14.452Z,5.20
2024-01-28T06:16:17.202Z,3.50
2024-01-28T06:21:20.249Z,5.00
2024-01-28T06:26:23.371Z,5.40
2024-01-28T06:31:26.209Z,3.90
2024-01-28T06:36:29.161Z,4.90
2024-01-28T06:41:32.006Z,4.80
2024-01-28T06:46:35.305Z,5.50
2024-01-28T06:51:42.959Z,5.10
2024-01-28T06:56:46.191Z,4.90
2024-01-28T07:01:49.236Z,4.70
2024-01-28T07:06:52.248Z,4.40
2024-01-28T07:11:55.053Z,6.10
2024-01-28T07:16:58.933Z,6.60
2024-01-28T07:22:01.704Z,4.40
2024-01-28T07:27:04.961Z,4.30
2024-01-28T07:32:07.745Z,4.80
2024-01-28T07:37:10.531Z,7.30
2024-01-28T07:42:13.570Z,19.20
2024-01-28T07:47:16.538Z,34.20
2024-01-28T07:52:19.338Z,15.50
2024-01-28T07:57:22.378Z,5.90
2024-01-28T08:02:25.282Z,15.30
2024-01-28T08:07:28.173Z,7.30
2024-01-28T08:12:31.076Z,13.10
2024-01-28T08:17:34.347Z,9.30
2024-01-28T08:22:38.401Z,43.20
2024-01-28T08:27:41.432Z,22.90
2024-01-28T08:32:44.500Z,38.10
2024-01-28T08:37:47.536Z,26.50
2024-01-28T08:42:50.434Z,13.00
2024-01-28T08:47:53.433Z,19.70
2024-01-28T08:52:57.109Z,8.50
2024-01-28T08:58:00.132Z,6.90
2024-01-28T09:03:03.925Z,5.90
2024-01-28T09:08:07.484Z,5.90
2024-01-28T09:13:10.684Z,10.80
2024-01-28T09:18:13.697Z,22.90
2024-01-28T09:23:16.737Z,26.60
2024-01-28T09:28:19.509Z,25.80
2024-01-28T09:33:22.405Z,10.40
2024-01-28T09:38:25.377Z,7.00
2024-01-28T09:43:31.427Z,7.10
2024-01-28T09:48:36.086Z,7.70
2024-01-28T09:53:39.065Z,8.00
2024-01-28T09:58:43.206Z,19.90
2024-01-28T10:03:47.096Z,24.70
2024-01-28T10:08:49.961Z,16.40
2024-01-28T10:13:54.665Z,8.60
2024-01-28T10:18:57.584Z,9.00
2024-01-28T10:24:00.903Z,24.30
2024-01-28T10:29:03.991Z,7.70
2024-01-28T10:34:06.934Z,5.10
2024-01-28T10:39:15.677Z,4.50
2024-01-28T10:44:20.681Z,4.00
2024-01-28T10:49:32.699Z,4.20
2024-01-28T10:54:40.162Z,3.10
2024-01-28T10:59:44.250Z,3.80
2024-01-28T11:04:49.038Z,3.30
2024-01-28T11:09:55.178Z,3.50
2024-01-28T11:15:02.114Z,3.30
2024-01-28T11:20:13.426Z,3.80
2024-01-28T11:25:25.675Z,15.10
2024-01-28T11:30:29.691Z,5.00
2024-01-28T11:35:32.502Z,3.40
2024-01-28T11:40:40.042Z,3.70
2024-01-28T11:45:43.039Z,3.10
2024-01-28T11:50:46.478Z,3.70
2024-01-28T11:55:49.368Z,3.10
2024-01-28T12:00:53.329Z,2.60
2024-01-28T12:05:58.139Z,2.60
2024-01-28T12:11:04.110Z,3.20
2024-01-28T12:16:07.540Z,2.70
2024-01-28T12:21:18.810Z,2.50
2024-01-28T12:26:22.236Z,2.30
2024-01-28T12:31:25.265Z,3.10
2024-01-28T12:36:28.407Z,3.00
2024-01-28T12:41:31.885Z,2.10
2024-01-28T12:46:35.292Z,2.90
2024-01-28T12:51:38.642Z,3.80
2024-01-28T12:56:42.271Z,3.70
2024-01-28T13:01:45.202Z,4.00
2024-01-28T13:06:48.079Z,4.10
2024-01-28T13:11:50.880Z,3.90
2024-01-28T13:16:53.865Z,3.30
2024-01-28T13:21:56.899Z,3.30
2024-01-28T13:27:00.435Z,3.40
2024-01-28T13:32:03.781Z,3.20
2024-01-28T13:37:07.039Z,3.10
2024-01-28T13:42:09.915Z,5.90
2024-01-28T13:47:12.983Z,12.00
2024-01-28T13:52:16.131Z,5.50
2024-01-28T13:57:19.721Z,7.20
2024-01-28T14:02:23.091Z,5.40
2024-01-28T14:07:26.116Z,4.00
2024-01-28T14:12:29.238Z,6.10
2024-01-28T14:17:37.776Z,7.70
2024-01-28T14:22:40.923Z,7.50
2024-01-28T14:27:43.808Z,6.80
2024-01-28T14:32:49.178Z,10.10
2024-01-28T14:37:52.204Z,9.70
2024-01-28T14:42:55.590Z,10.90
2024-01-28T14:47:58.707Z,15.60
2024-01-28T14:53:01.732Z,12.90
2024-01-28T14:58:04.947Z,14.60
2024-01-28T15:03:07.886Z,14.30
2024-01-28T15:08:11.226Z,11.70
2024-01-28T15:13:14.165Z,20.00
2024-01-28T15:18:18.241Z,11.00
2024-01-28T15:23:21.161Z,9.40
2024-01-28T15:28:25.667Z,8.40
2024-01-28T15:33:32.330Z,8.90
2024-01-28T15:38:35.261Z,13.20
2024-01-28T15:43:38.097Z,8.60
2024-01-28T15:48:41.615Z,8.80
2024-01-28T15:53:44.669Z,31.90
2024-01-28T15:58:48.007Z,12.90
2024-01-28T16:03:50.846Z,28.20
2024-01-28T16:08:53.717Z,17.00
2024-01-28T16:13:56.628Z,11.20
2024-01-28T16:19:00.329Z,9.50
2024-01-28T16:24:04.044Z,5.80
2024-01-28T16:29:07.428Z,6.30
2024-01-28T16:34:10.425Z,11.20
2024-01-28T16:39:13.521Z,42.70
2024-01-28T16:44:16.596Z,36.30
2024-01-28T16:49:21.279Z,22.40
2024-01-28T16:54:24.613Z,17.00
2024-01-28T16:59:27.569Z,9.80
2024-01-28T17:04:30.522Z,7.30
2024-01-28T17:09:33.457Z,8.10
2024-01-28T17:14:36.663Z,8.30
2024-01-28T17:19:40.304Z,7.00
2024-01-28T17:24:43.285Z,8.70
2024-01-28T17:29:46.377Z,7.50
2024-01-28T17:34:50.990Z,11.10
2024-01-28T17:39:54.540Z,9.40
2024-01-28T17:44:57.482Z,7.00
2024-01-28T17:50:00.744Z,8.70
2024-01-28T17:55:05.498Z,9.80
2024-01-28T18:00:10.036Z,11.00
2024-01-28T18:05:13.229Z,11.00
2024-01-28T18:10:17.886Z,27.30
2024-01-28T18:15:21.538Z,16.90
2024-01-28T18:20:25.190Z,21.10
2024-01-28T18:25:28.864Z,29.10
2024-01-28T18:30:32.030Z,16.10
2024-01-28T18:35:34.904Z,11.20
2024-01-28T18:40:38.078Z,11.30
2024-01-28T18:45:42.737Z,10.80
2024-01-28T18:50:47.667Z,7.00
2024-01-28T18:55:50.629Z,9.40
2024-01-28T19:00:53.861Z,7.60
2024-01-28T19:05:57.347Z,10.60
2024-01-28T19:11:01.643Z,12.10
2024-01-28T19:16:05.355Z,9.00
2024-01-28T19:21:08.602Z,9.70
2024-01-28T19:26:22.838Z,13.30
2024-01-28T19:31:26.291Z,10.50
2024-01-28T19:36:34.211Z,11.10
2024-01-28T19:41:37.109Z,12.30
2024-01-28T19:46:39.935Z,11.90
2024-01-28T19:51:42.782Z,10.80
2024-01-28T19:56:45.687Z,11.60
2024-01-28T20:01:48.664Z,11.20
2024-01-28T20:06:51.851Z,11.70
2024-01-28T20:11:54.791Z,9.70
2024-01-28T20:16:57.759Z,9.80
2024-01-28T20:22:00.846Z,9.90
2024-01-28T20:27:04.182Z,9.40
2024-01-28T20:32:08.973Z,8.90
2024-01-28T20:37:12.904Z,9.20
2024-01-28T20:42:16.655Z,9.60
2024-01-28T20:47:19.708Z,8.90
2024-01-28T20:52:22.527Z,10.20
2024-01-28T20:57:25.459Z,7.60
2024-01-28T21:02:28.294Z,8.60
2024-01-28T21:07:31.787Z,8.90
2024-01-28T21:12:34.765Z,9.80
2024-01-28T21:17:37.835Z,8.60
2024-01-28T21:22:40.860Z,8.30
2024-01-28T21:27:47.003Z,10.60
2024-01-28T21:32:50.993Z,10.20
2024-01-28T21:37:54.483Z,10.10
2024-01-28T21:42:57.741Z,10.30
2024-01-28T21:48:00.679Z,13.80
2024-01-28T21:53:03.888Z,12.60
2024-01-28T21:58:06.743Z,12.50
2024-01-28T22:03:09.601Z,13.10
2024-01-28T22:08:14.515Z,14.00
2024-01-28T22:13:17.901Z,13.10
2024-01-28T22:18:21.166Z,13.50
2024-01-28T22:23:24.100Z,10.10
2024-01-28T22:28:27.174Z,12.50
2024-01-28T22:33:30.274Z,12.60
2024-01-28T22:38:33.279Z,12.60
2024-01-28T22:43:37.018Z,14.00
2024-01-28T22:48:40.701Z,12.60
2024-01-28T22:53:44.048Z,12.60
2024-01-28T22:58:48.051Z,13.80
2024-01-28T23:03:51.093Z,12.70
2024-01-28T23:08:54.310Z,12.90
2024-01-28T23:13:57.064Z,12.40
2024-01-28T23:19:00.155Z,12.80
2024-01-28T23:24:03.218Z,11.50
2024-01-28T23:29:06.964Z,12.50
2024-01-28T23:34:13.626Z,8.90
2024-01-28T23:39:16.620Z,11.10
2024-01-28T23:44:19.785Z,8.80
2024-01-28T23:49:22.647Z,12.40
2024-01-28T23:54:25.576Z,10.20
2024-01-28T23:59:30.049Z,10.40
